sensor_id;sensor_type;location;lat;lon;timestamp;P1;P2;P0
72793;PMS5003;63436;26.334;50.194;2023-04-01T00:01:56;42;32;
72793;PMS5003;63436;26.334;50.194;2023-04-01T00:04:22;28;26;
72793;PMS5003;63436;26.334;50.194;2023-04-01T00:06:47;44;32;
72793;PMS5003;63436;26.334;50.194;2023-04-01T00:09:12;38;34;
72793;PMS5003;63436;26.334;50.194;2023-04-01T00:11:38;37;29;
72793;PMS5003;63436;26.334;50.194;2023-04-01T00:14:03;45;29;
72793;PMS5003;63436;26.334;50.194;2023-04-01T00:16:29;35;31;
72793;PMS5003;63436;26.334;50.194;2023-04-01T00:18:54;49;32;
72793;PMS5003;63436;26.334;50.194;2023-04-01T00:21:19;41;32;
72793;PMS5003;63436;26.334;50.194;2023-04-01T00:23:44;38;31;
72793;PMS5003;63436;26.334;50.194;2023-04-01T00:26:10;39;33;
72793;PMS5003;63436;26.334;50.194;2023-04-01T00:28:36;42;34;
72793;PMS5003;63436;26.334;50.194;2023-04-01T00:31:04;37;32;
72793;PMS5003;63436;26.334;50.194;2023-04-01T00:33:27;43;38;
72793;PMS5003;63436;26.334;50.194;2023-04-01T00:35:51;44;35;
72793;PMS5003;63436;26.334;50.194;2023-04-01T00:38:17;46;34;
72793;PMS5003;63436;26.334;50.194;2023-04-01T00:40:43;38;29;
72793;PMS5003;63436;26.334;50.194;2023-04-01T00:43:10;37;28;
72793;PMS5003;63436;26.334;50.194;2023-04-01T00:45:34;38;30;
72793;PMS5003;63436;26.334;50.194;2023-04-01T00:48:00;38;32;
72793;PMS5003;63436;26.334;50.194;2023-04-01T00:50:24;36;27;
72793;PMS5003;63436;26.334;50.194;2023-04-01T00:52:50;31;28;
72793;PMS5003;63436;26.334;50.194;2023-04-01T00:55:16;42;33;
72793;PMS5003;63436;26.334;50.194;2023-04-01T00:57:41;36;28;
72793;PMS5003;63436;26.334;50.194;2023-04-01T01:00:09;41;26;
72793;PMS5003;63436;26.334;50.194;2023-04-01T01:02:33;33;28;
72793;PMS5003;63436;26.334;50.194;2023-04-01T01:04:58;43;32;
72793;PMS5003;63436;26.334;50.194;2023-04-01T01:07:25;40;30;
72793;PMS5003;63436;26.334;50.194;2023-04-01T01:09:50;37;29;
72793;PMS5003;63436;26.334;50.194;2023-04-01T01:12:15;32;26;
72793;PMS5003;63436;26.334;50.194;2023-04-01T01:14:44;33;31;
72793;PMS5003;63436;26.334;50.194;2023-04-01T01:17:07;33;31;
72793;PMS5003;63436;26.334;50.194;2023-04-01T01:19:37;39;36;
72793;PMS5003;63436;26.334;50.194;2023-04-01T01:24:26;34;29;
72793;PMS5003;63436;26.334;50.194;2023-04-01T01:26:49;34;32;
72793;PMS5003;63436;26.334;50.194;2023-04-01T01:29:15;38;32;
72793;PMS5003;63436;26.334;50.194;2023-04-01T01:31:41;43;39;
72793;PMS5003;63436;26.334;50.194;2023-04-01T01:34:07;42;35;
72793;PMS5003;63436;26.334;50.194;2023-04-01T01:36:31;37;32;
72793;PMS5003;63436;26.334;50.194;2023-04-01T01:38:55;51;38;
72793;PMS5003;63436;26.334;50.194;2023-04-01T01:41:20;38;33;
72793;PMS5003;63436;26.334;50.194;2023-04-01T01:43:46;39;34;
72793;PMS5003;63436;26.334;50.194;2023-04-01T01:46:12;37;33;
72793;PMS5003;63436;26.334;50.194;2023-04-01T01:48:37;47;36;
72793;PMS5003;63436;26.334;50.194;2023-04-01T01:51:02;49;40;
72793;PMS5003;63436;26.334;50.194;2023-04-01T01:53:28;43;37;
72793;PMS5003;63436;26.334;50.194;2023-04-01T01:55:53;45;36;
72793;PMS5003;63436;26.334;50.194;2023-04-01T01:58:20;47;40;
72793;PMS5003;63436;26.334;50.194;2023-04-01T02:00:44;43;36;
72793;PMS5003;63436;26.334;50.194;2023-04-01T02:03:10;47;44;
72793;PMS5003;63436;26.334;50.194;2023-04-01T02:05:35;47;38;
72793;PMS5003;63436;26.334;50.194;2023-04-01T02:08:02;54;48;
72793;PMS5003;63436;26.334;50.194;2023-04-01T02:10:26;53;45;
72793;PMS5003;63436;26.334;50.194;2023-04-01T02:12:52;48;45;
72793;PMS5003;63436;26.334;50.194;2023-04-01T02:15:18;51;47;
72793;PMS5003;63436;26.334;50.194;2023-04-01T02:17:43;48;44;
72793;PMS5003;63436;26.334;50.194;2023-04-01T02:20:09;46;42;
72793;PMS5003;63436;26.334;50.194;2023-04-01T02:22:33;50;41;
72793;PMS5003;63436;26.334;50.194;2023-04-01T02:24:59;45;40;
72793;PMS5003;63436;26.334;50.194;2023-04-01T02:27:24;48;37;
72793;PMS5003;63436;26.334;50.194;2023-04-01T02:29:49;38;37;
72793;PMS5003;63436;26.334;50.194;2023-04-01T02:32:14;40;35;
72793;PMS5003;63436;26.334;50.194;2023-04-01T02:34:40;47;38;
72793;PMS5003;63436;26.334;50.194;2023-04-01T02:37:05;44;40;
72793;PMS5003;63436;26.334;50.194;2023-04-01T02:39:31;47;37;
72793;PMS5003;63436;26.334;50.194;2023-04-01T02:41:56;57;44;
72793;PMS5003;63436;26.334;50.194;2023-04-01T02:44:22;42;36;
72793;PMS5003;63436;26.334;50.194;2023-04-01T02:46:47;49;42;
72793;PMS5003;63436;26.334;50.194;2023-04-01T02:49:13;47;39;
72793;PMS5003;63436;26.334;50.194;2023-04-01T02:51:39;49;42;
72793;PMS5003;63436;26.334;50.194;2023-04-01T02:54:04;48;44;
72793;PMS5003;63436;26.334;50.194;2023-04-01T02:56:31;47;40;
72793;PMS5003;63436;26.334;50.194;2023-04-01T02:58:56;53;45;
72793;PMS5003;63436;26.334;50.194;2023-04-01T03:01:21;49;44;
72793;PMS5003;63436;26.334;50.194;2023-04-01T03:03:47;59;48;
72793;PMS5003;63436;26.334;50.194;2023-04-01T03:06:12;55;49;
72793;PMS5003;63436;26.334;50.194;2023-04-01T03:08:36;55;51;
72793;PMS5003;63436;26.334;50.194;2023-04-01T03:11:02;51;44;
72793;PMS5003;63436;26.334;50.194;2023-04-01T03:13:27;45;40;
72793;PMS5003;63436;26.334;50.194;2023-04-01T03:15:53;41;39;
72793;PMS5003;63436;26.334;50.194;2023-04-01T03:18:19;41;38;
72793;PMS5003;63436;26.334;50.194;2023-04-01T03:20:44;51;41;
72793;PMS5003;63436;26.334;50.194;2023-04-01T03:23:09;40;37;
72793;PMS5003;63436;26.334;50.194;2023-04-01T03:25:35;43;40;
72793;PMS5003;63436;26.334;50.194;2023-04-01T03:28:00;32;31;
72793;PMS5003;63436;26.334;50.194;2023-04-01T03:30:26;42;37;
72793;PMS5003;63436;26.334;50.194;2023-04-01T03:32:51;46;39;
72793;PMS5003;63436;26.334;50.194;2023-04-01T03:35:17;45;41;
72793;PMS5003;63436;26.334;50.194;2023-04-01T03:37:42;42;37;
72793;PMS5003;63436;26.334;50.194;2023-04-01T03:40:07;43;34;
72793;PMS5003;63436;26.334;50.194;2023-04-01T03:42:32;39;34;
72793;PMS5003;63436;26.334;50.194;2023-04-01T03:44:57;41;35;
72793;PMS5003;63436;26.334;50.194;2023-04-01T03:47:23;35;35;
72793;PMS5003;63436;26.334;50.194;2023-04-01T03:49:49;41;37;
72793;PMS5003;63436;26.334;50.194;2023-04-01T03:52:14;41;38;
72793;PMS5003;63436;26.334;50.194;2023-04-01T03:54:39;35;34;
72793;PMS5003;63436;26.334;50.194;2023-04-01T03:57:05;37;34;
72793;PMS5003;63436;26.334;50.194;2023-04-01T03:59:30;37;35;
72793;PMS5003;63436;26.334;50.194;2023-04-01T04:01:55;42;37;
72793;PMS5003;63436;26.334;50.194;2023-04-01T04:04:20;40;34;
72793;PMS5003;63436;26.334;50.194;2023-04-01T04:06:46;38;35;
72793;PMS5003;63436;26.334;50.194;2023-04-01T04:09:12;42;34;
72793;PMS5003;63436;26.334;50.194;2023-04-01T04:11:38;39;35;
72793;PMS5003;63436;26.334;50.194;2023-04-01T04:14:03;37;35;
72793;PMS5003;63436;26.334;50.194;2023-04-01T04:16:29;40;35;
72793;PMS5003;63436;26.334;50.194;2023-04-01T04:18:54;38;33;
72793;PMS5003;63436;26.334;50.194;2023-04-01T04:21:19;35;33;
72793;PMS5003;63436;26.334;50.194;2023-04-01T04:23:44;35;33;
72793;PMS5003;63436;26.334;50.194;2023-04-01T04:26:11;41;34;
72793;PMS5003;63436;26.334;50.194;2023-04-01T04:28:36;39;33;
72793;PMS5003;63436;26.334;50.194;2023-04-01T04:31:01;39;34;
72793;PMS5003;63436;26.334;50.194;2023-04-01T04:33:26;43;35;
72793;PMS5003;63436;26.334;50.194;2023-04-01T04:35:54;37;36;
72793;PMS5003;63436;26.334;50.194;2023-04-01T04:38:17;39;35;
72793;PMS5003;63436;26.334;50.194;2023-04-01T04:40:43;46;35;
72793;PMS5003;63436;26.334;50.194;2023-04-01T04:43:10;42;37;
72793;PMS5003;63436;26.334;50.194;2023-04-01T04:45:34;35;29;
72793;PMS5003;63436;26.334;50.194;2023-04-01T04:48:00;34;30;
72793;PMS5003;63436;26.334;50.194;2023-04-01T04:50:25;35;32;
72793;PMS5003;63436;26.334;50.194;2023-04-01T04:52:50;41;30;
72793;PMS5003;63436;26.334;50.194;2023-04-01T04:55:16;37;32;
72793;PMS5003;63436;26.334;50.194;2023-04-01T04:57:41;35;32;
72793;PMS5003;63436;26.334;50.194;2023-04-01T05:00:07;40;33;
72793;PMS5003;63436;26.334;50.194;2023-04-01T05:02:32;36;31;
72793;PMS5003;63436;26.334;50.194;2023-04-01T05:04:58;42;32;
72793;PMS5003;63436;26.334;50.194;2023-04-01T05:07:24;36;33;
72793;PMS5003;63436;26.334;50.194;2023-04-01T05:09:49;39;34;
72793;PMS5003;63436;26.334;50.194;2023-04-01T05:12:15;37;31;
72793;PMS5003;63436;26.334;50.194;2023-04-01T05:14:41;45;36;
72793;PMS5003;63436;26.334;50.194;2023-04-01T05:17:08;32;31;
72793;PMS5003;63436;26.334;50.194;2023-04-01T05:19:32;31;29;
72793;PMS5003;63436;26.334;50.194;2023-04-01T05:21:57;38;34;
72793;PMS5003;63436;26.334;50.194;2023-04-01T05:24:22;36;30;
72793;PMS5003;63436;26.334;50.194;2023-04-01T05:26:48;34;33;
72793;PMS5003;63436;26.334;50.194;2023-04-01T05:29:13;38;32;
72793;PMS5003;63436;26.334;50.194;2023-04-01T05:31:39;38;29;
72793;PMS5003;63436;26.334;50.194;2023-04-01T05:34:05;38;32;
72793;PMS5003;63436;26.334;50.194;2023-04-01T05:36:30;45;38;
72793;PMS5003;63436;26.334;50.194;2023-04-01T05:38:55;34;29;
72793;PMS5003;63436;26.334;50.194;2023-04-01T05:41:20;32;31;
72793;PMS5003;63436;26.334;50.194;2023-04-01T05:43:46;41;35;
72793;PMS5003;63436;26.334;50.194;2023-04-01T05:46:11;35;30;
72793;PMS5003;63436;26.334;50.194;2023-04-01T05:48:37;30;29;
72793;PMS5003;63436;26.334;50.194;2023-04-01T05:51:03;35;31;
72793;PMS5003;63436;26.334;50.194;2023-04-01T05:53:28;32;31;
72793;PMS5003;63436;26.334;50.194;2023-04-01T05:55:53;33;29;
72793;PMS5003;63436;26.334;50.194;2023-04-01T05:58:18;37;30;
72793;PMS5003;63436;26.334;50.194;2023-04-01T06:00:44;29;27;
72793;PMS5003;63436;26.334;50.194;2023-04-01T06:03:09;29;26;
72793;PMS5003;63436;26.334;50.194;2023-04-01T06:05:37;28;26;
72793;PMS5003;63436;26.334;50.194;2023-04-01T06:08:02;28;24;
72793;PMS5003;63436;26.334;50.194;2023-04-01T06:10:28;29;28;
72793;PMS5003;63436;26.334;50.194;2023-04-01T06:12:52;32;26;
72793;PMS5003;63436;26.334;50.194;2023-04-01T06:15:19;29;24;
72793;PMS5003;63436;26.334;50.194;2023-04-01T06:17:46;31;23;
72793;PMS5003;63436;26.334;50.194;2023-04-01T06:20:14;27;22;
72793;PMS5003;63436;26.334;50.194;2023-04-01T06:22:41;31;27;
72793;PMS5003;63436;26.334;50.194;2023-04-01T06:25:02;26;20;
72793;PMS5003;63436;26.334;50.194;2023-04-01T06:27:26;28;23;
72793;PMS5003;63436;26.334;50.194;2023-04-01T06:29:56;22;20;
72793;PMS5003;63436;26.334;50.194;2023-04-01T06:32:19;25;19;
72793;PMS5003;63436;26.334;50.194;2023-04-01T06:34:43;27;23;
72793;PMS5003;63436;26.334;50.194;2023-04-01T06:39:34;26;21;
72793;PMS5003;63436;26.334;50.194;2023-04-01T06:41:58;25;21;
72793;PMS5003;63436;26.334;50.194;2023-04-01T06:44:22;26;22;
72793;PMS5003;63436;26.334;50.194;2023-04-01T06:46:47;32;23;
72793;PMS5003;63436;26.334;50.194;2023-04-01T06:51:40;26;23;
72793;PMS5003;63436;26.334;50.194;2023-04-01T06:54:04;27;22;
72793;PMS5003;63436;26.334;50.194;2023-04-01T06:56:29;33;25;
72793;PMS5003;63436;26.334;50.194;2023-04-01T06:58:54;26;24;
72793;PMS5003;63436;26.334;50.194;2023-04-01T07:01:20;26;22;
72793;PMS5003;63436;26.334;50.194;2023-04-01T07:03:44;19;18;
72793;PMS5003;63436;26.334;50.194;2023-04-01T07:06:10;29;26;
72793;PMS5003;63436;26.334;50.194;2023-04-01T07:08:35;32;26;
72793;PMS5003;63436;26.334;50.194;2023-04-01T07:11:01;42;38;
72793;PMS5003;63436;26.334;50.194;2023-04-01T07:13:27;26;22;
72793;PMS5003;63436;26.334;50.194;2023-04-01T07:15:56;24;19;
72793;PMS5003;63436;26.334;50.194;2023-04-01T07:18:17;37;32;
72793;PMS5003;63436;26.334;50.194;2023-04-01T07:20:42;36;30;
72793;PMS5003;63436;26.334;50.194;2023-04-01T07:23:10;39;36;
72793;PMS5003;63436;26.334;50.194;2023-04-01T07:25:34;30;28;
72793;PMS5003;63436;26.334;50.194;2023-04-01T07:28:00;37;31;
72793;PMS5003;63436;26.334;50.194;2023-04-01T07:30:32;37;30;
72793;PMS5003;63436;26.334;50.194;2023-04-01T07:32:50;27;26;
72793;PMS5003;63436;26.334;50.194;2023-04-01T07:35:21;23;20;
72793;PMS5003;63436;26.334;50.194;2023-04-01T07:37:43;24;23;
72793;PMS5003;63436;26.334;50.194;2023-04-01T07:40:10;27;24;
72793;PMS5003;63436;26.334;50.194;2023-04-01T07:42:33;27;22;
72793;PMS5003;63436;26.334;50.194;2023-04-01T07:44:59;36;30;
72793;PMS5003;63436;26.334;50.194;2023-04-01T07:47:27;35;31;
72793;PMS5003;63436;26.334;50.194;2023-04-01T07:49:51;44;43;
72793;PMS5003;63436;26.334;50.194;2023-04-01T07:52:14;43;41;
72793;PMS5003;63436;26.334;50.194;2023-04-01T07:54:41;37;30;
72793;PMS5003;63436;26.334;50.194;2023-04-01T07:57:06;37;33;
72793;PMS5003;63436;26.334;50.194;2023-04-01T07:59:31;42;36;
72793;PMS5003;63436;26.334;50.194;2023-04-01T08:01:57;32;31;
72793;PMS5003;63436;26.334;50.194;2023-04-01T08:04:24;44;36;
72793;PMS5003;63436;26.334;50.194;2023-04-01T08:06:47;36;34;
72793;PMS5003;63436;26.334;50.194;2023-04-01T08:09:14;41;38;
72793;PMS5003;63436;26.334;50.194;2023-04-01T08:11:46;45;44;
72793;PMS5003;63436;26.334;50.194;2023-04-01T08:14:05;45;39;
72793;PMS5003;63436;26.334;50.194;2023-04-01T08:16:29;46;43;
72793;PMS5003;63436;26.334;50.194;2023-04-01T08:18:56;47;44;
72793;PMS5003;63436;26.334;50.194;2023-04-01T08:21:20;47;43;
72793;PMS5003;63436;26.334;50.194;2023-04-01T08:23:46;46;42;
72793;PMS5003;63436;26.334;50.194;2023-04-01T08:26:11;35;27;
72793;PMS5003;63436;26.334;50.194;2023-04-01T08:28:36;33;30;
72793;PMS5003;63436;26.334;50.194;2023-04-01T08:31:01;42;35;
72793;PMS5003;63436;26.334;50.194;2023-04-01T08:33:25;37;30;
72793;PMS5003;63436;26.334;50.194;2023-04-01T08:35:51;40;39;
72793;PMS5003;63436;26.334;50.194;2023-04-01T08:38:17;34;30;
72793;PMS5003;63436;26.334;50.194;2023-04-01T08:43:07;34;32;
72793;PMS5003;63436;26.334;50.194;2023-04-01T08:48:10;46;43;
72793;PMS5003;63436;26.334;50.194;2023-04-01T08:50:24;33;32;
72793;PMS5003;63436;26.334;50.194;2023-04-01T08:52:48;50;42;
72793;PMS5003;63436;26.334;50.194;2023-04-01T08:55:20;36;29;
72793;PMS5003;63436;26.334;50.194;2023-04-01T08:57:42;40;34;
72793;PMS5003;63436;26.334;50.194;2023-04-01T09:00:10;29;25;
72793;PMS5003;63436;26.334;50.194;2023-04-01T09:07:28;36;33;
72793;PMS5003;63436;26.334;50.194;2023-04-01T09:14:41;43;31;
72793;PMS5003;63436;26.334;50.194;2023-04-01T09:17:09;37;34;
72793;PMS5003;63436;26.334;50.194;2023-04-01T09:19:31;28;27;
72793;PMS5003;63436;26.334;50.194;2023-04-01T09:21:57;30;24;
72793;PMS5003;63436;26.334;50.194;2023-04-01T09:24:23;40;30;
72793;PMS5003;63436;26.334;50.194;2023-04-01T09:26:51;28;28;
72793;PMS5003;63436;26.334;50.194;2023-04-01T09:29:16;26;23;
72793;PMS5003;63436;26.334;50.194;2023-04-01T09:31:42;31;30;
72793;PMS5003;63436;26.334;50.194;2023-04-01T09:34:07;37;31;
72793;PMS5003;63436;26.334;50.194;2023-04-01T09:36:33;36;33;
72793;PMS5003;63436;26.334;50.194;2023-04-01T09:38:55;32;32;
72793;PMS5003;63436;26.334;50.194;2023-04-01T09:41:20;47;34;
72793;PMS5003;63436;26.334;50.194;2023-04-01T09:43:48;37;31;
72793;PMS5003;63436;26.334;50.194;2023-04-01T09:46:11;41;34;
72793;PMS5003;63436;26.334;50.194;2023-04-01T09:48:39;42;37;
72793;PMS5003;63436;26.334;50.194;2023-04-01T09:51:01;38;32;
72793;PMS5003;63436;26.334;50.194;2023-04-01T10:12:50;24;23;
72793;PMS5003;63436;26.334;50.194;2023-04-01T10:17:44;25;24;
72793;PMS5003;63436;26.334;50.194;2023-04-01T10:20:17;32;29;
72793;PMS5003;63436;26.334;50.194;2023-04-01T10:27:26;32;29;
72793;PMS5003;63436;26.334;50.194;2023-04-01T10:39:32;28;23;
72793;PMS5003;63436;26.334;50.194;2023-04-01T10:41:58;22;20;
72793;PMS5003;63436;26.334;50.194;2023-04-01T10:51:47;22;20;
72793;PMS5003;63436;26.334;50.194;2023-04-01T10:56:32;31;30;
72793;PMS5003;63436;26.334;50.194;2023-04-01T10:59:03;27;25;
72793;PMS5003;63436;26.334;50.194;2023-04-01T11:01:25;31;27;
72793;PMS5003;63436;26.334;50.194;2023-04-01T11:13:31;25;24;
72793;PMS5003;63436;26.334;50.194;2023-04-01T11:16:00;29;26;
72793;PMS5003;63436;26.334;50.194;2023-04-01T11:25:38;33;29;
72793;PMS5003;63436;26.334;50.194;2023-04-01T11:28:10;30;25;
72793;PMS5003;63436;26.334;50.194;2023-04-01T11:30:27;22;21;
72793;PMS5003;63436;26.334;50.194;2023-04-01T11:32:52;28;27;
72793;PMS5003;63436;26.334;50.194;2023-04-01T11:35:23;27;24;
72793;PMS5003;63436;26.334;50.194;2023-04-01T11:37:40;31;26;
72793;PMS5003;63436;26.334;50.194;2023-04-01T11:40:07;26;24;
72793;PMS5003;63436;26.334;50.194;2023-04-01T11:42:32;30;26;
72793;PMS5003;63436;26.334;50.194;2023-04-01T11:44:57;32;31;
72793;PMS5003;63436;26.334;50.194;2023-04-01T11:47:24;28;25;
72793;PMS5003;63436;26.334;50.194;2023-04-01T11:49:49;31;28;
72793;PMS5003;63436;26.334;50.194;2023-04-01T11:52:16;30;28;
72793;PMS5003;63436;26.334;50.194;2023-04-01T11:54:40;27;22;
72793;PMS5003;63436;26.334;50.194;2023-04-01T11:57:06;22;22;
72793;PMS5003;63436;26.334;50.194;2023-04-01T11:59:31;25;23;
72793;PMS5003;63436;26.334;50.194;2023-04-01T12:01:54;30;25;
72793;PMS5003;63436;26.334;50.194;2023-04-01T12:04:30;22;21;
72793;PMS5003;63436;26.334;50.194;2023-04-01T12:06:44;31;25;
72793;PMS5003;63436;26.334;50.194;2023-04-01T12:09:12;24;22;
72793;PMS5003;63436;26.334;50.194;2023-04-01T12:11:36;28;24;
72793;PMS5003;63436;26.334;50.194;2023-04-01T12:14:02;26;25;
72793;PMS5003;63436;26.334;50.194;2023-04-01T12:16:29;24;21;
72793;PMS5003;63436;26.334;50.194;2023-04-01T12:18:50;26;22;
72793;PMS5003;63436;26.334;50.194;2023-04-01T12:21:18;29;26;
72793;PMS5003;63436;26.334;50.194;2023-04-01T12:23:47;24;22;
72793;PMS5003;63436;26.334;50.194;2023-04-01T12:26:12;21;20;
72793;PMS5003;63436;26.334;50.194;2023-04-01T12:28:37;24;22;
72793;PMS5003;63436;26.334;50.194;2023-04-01T12:31:01;29;22;
72793;PMS5003;63436;26.334;50.194;2023-04-01T12:33:29;24;22;
72793;PMS5003;63436;26.334;50.194;2023-04-01T12:35:53;24;22;
72793;PMS5003;63436;26.334;50.194;2023-04-01T12:38:17;28;25;
72793;PMS5003;63436;26.334;50.194;2023-04-01T12:40:44;22;19;
72793;PMS5003;63436;26.334;50.194;2023-04-01T12:43:11;26;26;
72793;PMS5003;63436;26.334;50.194;2023-04-01T12:45:31;28;25;
72793;PMS5003;63436;26.334;50.194;2023-04-01T12:48:01;25;22;
72793;PMS5003;63436;26.334;50.194;2023-04-01T12:50:25;26;24;
72793;PMS5003;63436;26.334;50.194;2023-04-01T12:52:51;23;20;
72793;PMS5003;63436;26.334;50.194;2023-04-01T13:02:35;28;21;
72793;PMS5003;63436;26.334;50.194;2023-04-01T13:07:28;29;24;
72793;PMS5003;63436;26.334;50.194;2023-04-01T13:09:47;27;25;
72793;PMS5003;63436;26.334;50.194;2023-04-01T13:12:18;32;26;
72793;PMS5003;63436;26.334;50.194;2023-04-01T13:17:06;23;22;
72793;PMS5003;63436;26.334;50.194;2023-04-01T13:19:30;28;26;
72793;PMS5003;63436;26.334;50.194;2023-04-01T13:21:55;23;22;
72793;PMS5003;63436;26.334;50.194;2023-04-01T13:24:25;22;20;
72793;PMS5003;63436;26.334;50.194;2023-04-01T13:26:48;21;20;
72793;PMS5003;63436;26.334;50.194;2023-04-01T13:29:12;24;21;
72793;PMS5003;63436;26.334;50.194;2023-04-01T13:31:38;26;23;
72793;PMS5003;63436;26.334;50.194;2023-04-01T13:34:06;20;17;
72793;PMS5003;63436;26.334;50.194;2023-04-01T13:36:28;26;24;
72793;PMS5003;63436;26.334;50.194;2023-04-01T13:38:58;24;23;
72793;PMS5003;63436;26.334;50.194;2023-04-01T13:41:21;23;21;
72793;PMS5003;63436;26.334;50.194;2023-04-01T13:43:43;25;21;
72793;PMS5003;63436;26.334;50.194;2023-04-01T13:48:39;20;17;
72793;PMS5003;63436;26.334;50.194;2023-04-01T13:51:07;20;16;
72793;PMS5003;63436;26.334;50.194;2023-04-01T13:55:54;24;19;
72793;PMS5003;63436;26.334;50.194;2023-04-01T13:58:20;30;21;
72793;PMS5003;63436;26.334;50.194;2023-04-01T14:00:44;23;17;
72793;PMS5003;63436;26.334;50.194;2023-04-01T14:03:14;20;20;
72793;PMS5003;63436;26.334;50.194;2023-04-01T14:05:38;21;18;
72793;PMS5003;63436;26.334;50.194;2023-04-01T14:08:00;23;18;
72793;PMS5003;63436;26.334;50.194;2023-04-01T14:10:27;22;20;
72793;PMS5003;63436;26.334;50.194;2023-04-01T14:12:50;23;17;
72793;PMS5003;63436;26.334;50.194;2023-04-01T14:15:18;20;19;
72793;PMS5003;63436;26.334;50.194;2023-04-01T14:17:44;19;18;
72793;PMS5003;63436;26.334;50.194;2023-04-01T14:20:13;22;19;
72793;PMS5003;63436;26.334;50.194;2023-04-01T14:22:32;21;21;
72793;PMS5003;63436;26.334;50.194;2023-04-01T14:25:02;21;18;
72793;PMS5003;63436;26.334;50.194;2023-04-01T14:27:24;20;18;
72793;PMS5003;63436;26.334;50.194;2023-04-01T14:29:50;21;16;
72793;PMS5003;63436;26.334;50.194;2023-04-01T14:32:14;22;17;
72793;PMS5003;63436;26.334;50.194;2023-04-01T14:34:43;24;18;
72793;PMS5003;63436;26.334;50.194;2023-04-01T14:39:33;22;21;
72793;PMS5003;63436;26.334;50.194;2023-04-01T14:41:57;21;17;
72793;PMS5003;63436;26.334;50.194;2023-04-01T14:44:24;24;17;
72793;PMS5003;63436;26.334;50.194;2023-04-01T14:46:50;31;23;
72793;PMS5003;63436;26.334;50.194;2023-04-01T14:49:15;22;19;
72793;PMS5003;63436;26.334;50.194;2023-04-01T14:51:36;23;16;
72793;PMS5003;63436;26.334;50.194;2023-04-01T14:54:04;24;21;
72793;PMS5003;63436;26.334;50.194;2023-04-01T14:58:57;21;18;
72793;PMS5003;63436;26.334;50.194;2023-04-01T15:01:32;30;22;
72793;PMS5003;63436;26.334;50.194;2023-04-01T15:03:47;31;22;
72793;PMS5003;63436;26.334;50.194;2023-04-01T15:06:14;21;17;
72793;PMS5003;63436;26.334;50.194;2023-04-01T15:08:33;20;16;
72793;PMS5003;63436;26.334;50.194;2023-04-01T15:11:04;21;15;
72793;PMS5003;63436;26.334;50.194;2023-04-01T15:18:17;21;19;
72793;PMS5003;63436;26.334;50.194;2023-04-01T15:20:45;21;19;
72793;PMS5003;63436;26.334;50.194;2023-04-01T15:23:10;23;18;
72793;PMS5003;63436;26.334;50.194;2023-04-01T15:25:36;31;22;
72793;PMS5003;63436;26.334;50.194;2023-04-01T15:27:59;23;20;
72793;PMS5003;63436;26.334;50.194;2023-04-01T15:30:27;24;20;
72793;PMS5003;63436;26.334;50.194;2023-04-01T15:32:51;22;20;
72793;PMS5003;63436;26.334;50.194;2023-04-01T15:35:17;25;18;
72793;PMS5003;63436;26.334;50.194;2023-04-01T15:37:40;27;21;
72793;PMS5003;63436;26.334;50.194;2023-04-01T15:40:06;20;18;
72793;PMS5003;63436;26.334;50.194;2023-04-01T15:42:34;27;21;
72793;PMS5003;63436;26.334;50.194;2023-04-01T15:44:58;27;21;
72793;PMS5003;63436;26.334;50.194;2023-04-01T15:47:29;31;24;
72793;PMS5003;63436;26.334;50.194;2023-04-01T15:49:46;24;19;
72793;PMS5003;63436;26.334;50.194;2023-04-01T15:52:13;26;21;
72793;PMS5003;63436;26.334;50.194;2023-04-01T15:57:04;23;21;
72793;PMS5003;63436;26.334;50.194;2023-04-01T15:59:31;29;23;
72793;PMS5003;63436;26.334;50.194;2023-04-01T16:01:53;25;19;
72793;PMS5003;63436;26.334;50.194;2023-04-01T16:04:21;29;22;
72793;PMS5003;63436;26.334;50.194;2023-04-01T16:06:47;24;21;
72793;PMS5003;63436;26.334;50.194;2023-04-01T16:09:15;25;21;
72793;PMS5003;63436;26.334;50.194;2023-04-01T16:11:35;21;20;
72793;PMS5003;63436;26.334;50.194;2023-04-01T16:14:04;23;19;
72793;PMS5003;63436;26.334;50.194;2023-04-01T16:16:27;27;22;
72793;PMS5003;63436;26.334;50.194;2023-04-01T16:18:53;20;19;
72793;PMS5003;63436;26.334;50.194;2023-04-01T16:23:42;23;18;
72793;PMS5003;63436;26.334;50.194;2023-04-01T16:26:07;21;18;
72793;PMS5003;63436;26.334;50.194;2023-04-01T16:28:32;27;21;
72793;PMS5003;63436;26.334;50.194;2023-04-01T16:30:57;27;20;
72793;PMS5003;63436;26.334;50.194;2023-04-01T16:33:22;24;19;
72793;PMS5003;63436;26.334;50.194;2023-04-01T16:35:49;24;17;
72793;PMS5003;63436;26.334;50.194;2023-04-01T16:38:15;19;18;
72793;PMS5003;63436;26.334;50.194;2023-04-01T16:40:42;24;18;
72793;PMS5003;63436;26.334;50.194;2023-04-01T16:43:06;24;20;
72793;PMS5003;63436;26.334;50.194;2023-04-01T16:45:31;24;19;
72793;PMS5003;63436;26.334;50.194;2023-04-01T16:47:55;26;22;
72793;PMS5003;63436;26.334;50.194;2023-04-01T16:50:20;28;22;
72793;PMS5003;63436;26.334;50.194;2023-04-01T16:52:51;20;19;
72793;PMS5003;63436;26.334;50.194;2023-04-01T16:55:14;22;21;
72793;PMS5003;63436;26.334;50.194;2023-04-01T16:57:36;25;19;
72793;PMS5003;63436;26.334;50.194;2023-04-01T17:00:02;23;19;
72793;PMS5003;63436;26.334;50.194;2023-04-01T17:02:26;21;18;
72793;PMS5003;63436;26.334;50.194;2023-04-01T17:04:57;20;17;
72793;PMS5003;63436;26.334;50.194;2023-04-01T17:07:21;27;22;
72793;PMS5003;63436;26.334;50.194;2023-04-01T17:09:46;26;20;
72793;PMS5003;63436;26.334;50.194;2023-04-01T17:12:09;25;19;
72793;PMS5003;63436;26.334;50.194;2023-04-01T17:14:35;20;20;
72793;PMS5003;63436;26.334;50.194;2023-04-01T17:17:08;25;23;
72793;PMS5003;63436;26.334;50.194;2023-04-01T17:19:28;20;18;
72793;PMS5003;63436;26.334;50.194;2023-04-01T17:21:54;26;20;
72793;PMS5003;63436;26.334;50.194;2023-04-01T17:24:21;32;21;
72793;PMS5003;63436;26.334;50.194;2023-04-01T17:26:41;25;23;
72793;PMS5003;63436;26.334;50.194;2023-04-01T17:29:06;26;19;
72793;PMS5003;63436;26.334;50.194;2023-04-01T17:31:36;25;21;
72793;PMS5003;63436;26.334;50.194;2023-04-01T17:34:03;24;20;
72793;PMS5003;63436;26.334;50.194;2023-04-01T17:36:27;21;19;
72793;PMS5003;63436;26.334;50.194;2023-04-01T17:41:15;25;19;
72793;PMS5003;63436;26.334;50.194;2023-04-01T17:43:40;28;19;
72793;PMS5003;63436;26.334;50.194;2023-04-01T17:46:05;27;19;
72793;PMS5003;63436;26.334;50.194;2023-04-01T17:48:34;23;22;